Time;durP1;ratioP1;P1;durP2;ratioP2;P2;SDS_P1;SDS_P2;PMS_P1;PMS_P2;Temp;Humidity;BMP_temperature;BMP_pressure;BME280_temperature;BME280_humidity;BME280_pressure;Samples;Min_cycle;Max_cycle;Signal;HPM_P1;HPM_P2
2022/06/15 00:02:31;;;;;;;4.67;3.23;;;;;;;11.60;81.88;98132.72;6200335;28;20224;-85
2022/06/15 00:05:33;;;;;;;4.20;3.33;;;;;;;11.61;81.50;98143.19;6191966;28;20239;-85
2022/06/15 00:08:36;;;;;;;3.03;2.80;;;;;;;11.60;81.61;98143.28;6188142;28;20699;-85
2022/06/15 00:11:41;;;;;;;4.40;3.37;;;;;;;11.53;81.85;98134.16;6206228;28;20258;-84
2022/06/15 00:14:44;;;;;;;7.30;3.37;;;;;;;11.45;82.16;98134.75;6245447;28;20231;-84
2022/06/15 00:17:46;;;;;;;5.27;3.87;;;;;;;11.41;82.64;98135.94;6195546;28;20239;-84
2022/06/15 00:20:49;;;;;;;4.77;3.60;;;;;;;11.39;82.67;98124.63;6195807;28;20240;-84
2022/06/15 00:23:51;;;;;;;4.43;3.47;;;;;;;11.33;82.66;98125.97;6214507;28;20729;-84
2022/06/15 00:26:53;;;;;;;6.27;3.77;;;;;;;11.30;82.59;98122.69;6205374;28;20289;-84
2022/06/15 00:29:55;;;;;;;4.17;3.60;;;;;;;11.25;83.25;98127.50;6211458;28;20265;-84
2022/06/15 00:32:57;;;;;;;3.87;3.30;;;;;;;11.25;83.27;98138.06;6212276;28;20599;-84
2022/06/15 00:36:04;;;;;;;4.40;3.30;;;;;;;11.21;83.29;98131.31;6212111;28;20225;-84
2022/06/15 00:39:07;;;;;;;6.87;3.17;;;;;;;11.19;83.30;98125.31;6228439;28;20311;-84
2022/06/15 00:42:15;;;;;;;6.57;3.87;;;;;;;11.20;83.45;98130.47;6229452;28;20207;-84
2022/06/15 00:45:18;;;;;;;3.47;3.07;;;;;;;11.21;83.23;98124.25;6228939;28;20291;-84
2022/06/15 00:48:20;;;;;;;4.00;3.60;;;;;;;11.19;83.21;98122.66;6212232;28;20234;-84
2022/06/15 00:51:24;;;;;;;4.43;3.83;;;;;;;11.12;83.02;98121.47;6211041;28;20581;-84
2022/06/15 00:54:27;;;;;;;3.73;3.43;;;;;;;11.10;83.45;98122.41;6205792;28;20618;-83
2022/06/15 00:57:30;;;;;;;5.20;3.57;;;;;;;11.08;83.49;98120.84;6187816;28;20252;-84
2022/06/15 01:00:33;;;;;;;3.73;3.43;;;;;;;11.04;83.62;98120.25;6217538;28;20309;-84
2022/06/15 01:03:37;;;;;;;5.37;3.53;;;;;;;11.00;83.79;98118.78;6205447;28;20226;-87
2022/06/15 01:06:57;;;;;;;7.70;4.10;;;;;;;10.97;83.75;98118.19;6228254;28;20825;-86
2022/06/15 01:10:17;;;;;;;3.87;3.57;;;;;;;10.94;83.96;98124.53;6211848;28;20234;-88
2022/06/15 01:13:57;;;;;;;5.43;3.37;;;;;;;10.90;83.76;98115.13;6210591;28;20261;-87
2022/06/15 01:17:02;;;;;;;3.83;3.27;;;;;;;10.89;83.92;98115.25;6217930;28;20233;-86
2022/06/15 01:20:07;;;;;;;4.10;3.03;;;;;;;10.90;84.13;98117.78;6225930;28;20238;-86
2022/06/15 01:23:30;;;;;;;4.93;3.80;;;;;;;10.87;84.35;98114.53;6227837;28;20597;-85
2022/06/15 01:26:54;;;;;;;5.93;3.63;;;;;;;10.88;84.33;98109.13;6203890;28;20287;-86
2022/06/15 01:29:59;;;;;;;3.77;3.47;;;;;;;10.90;83.97;98111.66;6226525;28;20243;-86
2022/06/15 01:33:07;;;;;;;4.93;3.17;;;;;;;10.89;83.76;98112.59;6244257;28;20594;-86
2022/06/15 01:36:23;;;;;;;4.80;3.53;;;;;;;10.85;84.28;98114.66;6214760;28;20321;-86
2022/06/15 01:39:32;;;;;;;4.37;3.70;;;;;;;10.79;83.96;98112.44;6232911;28;20295;-86
2022/06/15 01:42:51;;;;;;;6.47;4.03;;;;;;;10.80;84.02;98103.56;6215993;28;20300;-86
2022/06/15 01:45:55;;;;;;;5.47;3.70;;;;;;;10.78;83.87;98113.41;6199935;28;20238;-85
2022/06/15 01:48:59;;;;;;;3.67;3.37;;;;;;;10.74;84.01;98106.69;6232013;28;20229;-86
2022/06/15 01:52:02;;;;;;;5.30;3.37;;;;;;;10.69;84.30;98111.44;6264732;28;20259;-86
2022/06/15 01:55:21;;;;;;;7.43;3.90;;;;;;;10.63;84.04;98109.28;6215415;28;20315;-86
2022/06/15 01:58:27;;;;;;;3.87;3.47;;;;;;;10.56;84.68;98111.53;6220427;28;20318;-86
2022/06/15 02:01:46;;;;;;;4.43;3.40;;;;;;;10.53;84.34;98110.91;6207095;28;20560;-86
2022/06/15 02:05:06;;;;;;;5.30;3.50;;;;;;;10.53;84.42;98111.75;6207449;28;20235;-86
2022/06/15 02:08:11;;;;;;;5.00;3.97;;;;;;;10.52;84.73;98107.41;6207375;28;20246;-86
2022/06/15 02:11:29;;;;;;;5.23;4.03;;;;;;;10.51;84.59;98103.09;6239881;28;20317;-86
2022/06/15 02:14:40;;;;;;;5.47;3.63;;;;;;;10.52;84.76;98106.56;6228621;28;20314;-86
2022/06/15 02:17:46;;;;;;;4.77;3.23;;;;;;;10.54;85.00;98105.50;6231047;28;20287;-86
2022/06/15 02:20:57;;;;;;;3.50;3.20;;;;;;;10.53;84.64;98106.47;6231159;28;20323;-87
2022/06/15 02:24:01;;;;;;;3.97;3.57;;;;;;;10.49;84.56;98106.78;6234251;28;20725;-86
2022/06/15 02:27:05;;;;;;;6.07;3.80;;;;;;;10.46;84.74;98107.88;6208632;28;20230;-86
2022/06/15 02:30:18;;;;;;;6.30;3.77;;;;;;;10.42;84.65;98100.28;6214266;28;20236;-86
2022/06/15 02:33:31;;;;;;;3.87;3.30;;;;;;;10.38;85.23;98099.69;6232055;28;20224;-86
2022/06/15 02:36:37;;;;;;;5.70;4.03;;;;;;;10.40;84.67;98110.09;6214357;28;20262;-85
2022/06/15 02:39:40;;;;;;;3.13;2.83;;;;;;;10.38;85.19;98107.59;6216191;28;20232;-86
2022/06/15 02:42:45;;;;;;;3.57;3.27;;;;;;;10.39;84.87;98101.34;6222032;28;20803;-85
2022/06/15 02:45:51;;;;;;;5.47;3.80;;;;;;;10.37;84.58;98108.56;6214732;28;20283;-85
2022/06/15 02:48:58;;;;;;;6.23;3.53;;;;;;;10.35;84.72;98099.91;6229771;28;20654;-86
2022/06/15 02:52:05;;;;;;;5.13;3.40;;;;;;;10.34;84.73;98101.69;6214325;28;20700;-85
2022/06/15 02:55:11;;;;;;;4.00;3.70;;;;;;;10.31;85.27;98109.81;6214409;28;20236;-85
2022/06/15 02:58:24;;;;;;;4.80;3.70;;;;;;;10.27;85.07;98102.25;6231918;28;20237;-85
2022/06/15 03:01:28;;;;;;;5.20;4.00;;;;;;;10.22;85.65;98101.72;6220477;28;20229;-86
2022/06/15 03:04:31;;;;;;;5.00;3.90;;;;;;;10.19;85.72;98102.78;6226904;28;20232;-85
2022/06/15 03:07:34;;;;;;;4.20;3.80;;;;;;;10.21;86.03;98102.69;6236724;28;20589;-85
2022/06/15 03:10:36;;;;;;;4.87;3.50;;;;;;;10.23;85.58;98099.00;6217485;28;20330;-86
2022/06/15 03:13:38;;;;;;;5.40;3.90;;;;;;;10.25;85.73;98099.72;6211244;28;20789;-85
2022/06/15 03:16:47;;;;;;;4.47;3.20;;;;;;;10.28;85.42;98096.03;6233714;28;20238;-85
2022/06/15 03:19:52;;;;;;;5.10;3.97;;;;;;;10.30;85.67;98102.00;6205736;28;20372;-85
2022/06/15 03:22:54;;;;;;;3.80;3.40;;;;;;;10.33;85.54;98096.53;6237005;28;20227;-85
2022/06/15 03:26:00;;;;;;;4.03;3.40;;;;;;;10.41;85.71;98101.22;6213155;28;20311;-86
2022/06/15 03:29:07;;;;;;;4.27;3.77;;;;;;;10.46;85.75;98094.69;6212728;28;20275;-85
2022/06/15 03:32:15;;;;;;;4.13;3.60;;;;;;;10.49;85.47;98098.88;6213250;28;20235;-85
2022/06/15 03:35:34;;;;;;;4.60;4.10;;;;;;;10.53;85.82;98095.91;6228023;28;20241;-86
2022/06/15 03:38:51;;;;;;;4.70;3.97;;;;;;;10.60;85.54;98099.78;6216567;28;20254;-86
2022/06/15 03:42:14;;;;;;;5.43;4.13;;;;;;;10.68;85.86;98104.50;6212112;28;20280;-86
2022/06/15 03:45:17;;;;;;;5.83;4.00;;;;;;;10.81;85.23;98101.78;6229489;28;20230;-85
2022/06/15 03:48:19;;;;;;;5.87;3.70;;;;;;;10.93;85.28;98099.06;6212359;28;20222;-86
2022/06/15 03:51:22;;;;;;;4.53;3.23;;;;;;;11.04;85.28;98100.91;6212713;28;20240;-86
2022/06/15 03:54:37;;;;;;;5.60;4.00;;;;;;;11.11;85.24;98096.84;6212434;28;20312;-85
2022/06/15 03:57:40;;;;;;;4.40;3.90;;;;;;;11.16;85.06;98099.16;6204361;28;20700;-86
2022/06/15 04:00:49;;;;;;;6.37;3.77;;;;;;;11.22;85.13;98099.50;6212349;28;20242;-86
2022/06/15 04:03:53;;;;;;;5.50;3.87;;;;;;;11.31;85.03;98097.97;6204830;28;20624;-86
2022/06/15 04:06:59;;;;;;;6.27;3.93;;;;;;;11.40;84.79;98102.53;6196227;28;20352;-86
2022/06/15 04:10:04;;;;;;;3.90;3.50;;;;;;;11.49;84.53;98101.81;6212122;28;20367;-86
2022/06/15 04:13:09;;;;;;;4.60;4.13;;;;;;;11.56;84.13;98100.41;6217292;28;20266;-86
2022/06/15 04:16:19;;;;;;;5.23;4.07;;;;;;;11.59;84.08;98099.31;6212173;28;20240;-86
2022/06/15 04:19:30;;;;;;;4.47;3.80;;;;;;;11.61;84.19;98097.41;6228141;28;20234;-86
2022/06/15 04:22:33;;;;;;;6.03;3.63;;;;;;;11.63;84.51;98096.31;6212131;28;20237;-85
2022/06/15 04:25:42;;;;;;;5.60;3.67;;;;;;;11.74;83.93;98092.84;6186939;28;20278;-85
2022/06/15 04:28:44;;;;;;;4.43;3.40;;;;;;;11.79;83.86;98096.00;6198391;28;20318;-86
2022/06/15 04:31:51;;;;;;;4.43;3.73;;;;;;;11.85;84.18;98094.69;6240559;28;20729;-86
2022/06/15 04:34:54;;;;;;;4.27;3.87;;;;;;;11.88;84.12;98092.63;6252353;28;20235;-85
2022/06/15 04:37:57;;;;;;;4.30;3.90;;;;;;;11.93;84.00;98097.56;6246359;28;20244;-85
2022/06/15 04:41:04;;;;;;;3.90;3.57;;;;;;;11.99;84.17;98086.47;6263781;28;20206;-89
2022/06/15 04:44:09;;;;;;;5.67;3.83;;;;;;;12.02;83.87;98089.72;6269000;28;20532;-87
2022/06/15 04:47:14;;;;;;;4.03;3.70;;;;;;;12.06;84.03;98099.13;6268772;28;20277;-87
2022/06/15 04:50:17;;;;;;;3.80;3.43;;;;;;;12.11;83.88;98091.63;6269271;28;20216;-88
2022/06/15 04:53:23;;;;;;;5.57;4.07;;;;;;;12.14;84.08;98093.22;6246543;28;20265;-88
2022/06/15 04:56:28;;;;;;;4.20;3.60;;;;;;;12.13;83.64;98096.81;6230701;28;20246;-88
2022/06/15 04:59:34;;;;;;;4.37;3.77;;;;;;;12.08;84.50;98091.03;6241815;28;20577;-87
2022/06/15 05:02:39;;;;;;;5.00;3.67;;;;;;;12.07;84.48;98097.31;6237306;28;20694;-89
2022/06/15 05:05:42;;;;;;;4.20;3.63;;;;;;;12.10;84.41;98092.59;6253047;28;20225;-88
2022/06/15 05:08:44;;;;;;;4.50;4.10;;;;;;;12.14;84.77;98093.22;6236871;28;20504;-91
2022/06/15 05:11:46;;;;;;;4.20;3.90;;;;;;;12.20;84.97;98087.41;6239924;28;20594;-89
2022/06/15 05:14:48;;;;;;;4.93;3.60;;;;;;;12.28;84.75;98094.75;6241407;28;20724;-90
2022/06/15 05:17:51;;;;;;;6.77;4.67;;;;;;;12.36;84.72;98097.63;6225051;28;20228;-89
2022/06/15 05:20:54;;;;;;;4.63;4.10;;;;;;;12.42;84.72;98102.41;6241718;28;20222;-91
2022/06/15 05:24:00;;;;;;;3.70;3.27;;;;;;;12.50;84.58;98105.28;6241159;28;20270;-88
2022/06/15 05:27:12;;;;;;;4.73;3.77;;;;;;;12.59;84.37;98091.28;6232745;28;20664;-90
2022/06/15 05:30:14;;;;;;;6.47;3.80;;;;;;;12.65;84.05;98096.09;6220441;28;20304;-91
2022/06/15 05:33:16;;;;;;;5.33;4.00;;;;;;;12.72;84.13;98091.97;6232181;28;20314;-90
2022/06/15 05:36:19;;;;;;;3.87;3.50;;;;;;;12.80;84.17;98101.91;6195542;28;20728;-89
2022/06/15 05:39:22;;;;;;;4.60;4.10;;;;;;;12.86;84.02;98101.44;6209722;28;20278;-89
2022/06/15 05:42:29;;;;;;;5.43;4.23;;;;;;;12.90;84.20;98095.72;6217387;28;20306;-89
2022/06/15 05:45:36;;;;;;;4.07;3.67;;;;;;;13.03;84.32;98092.91;6215865;28;20310;-90
2022/06/15 05:48:39;;;;;;;5.67;3.40;;;;;;;13.15;84.18;98091.91;6216373;28;20350;-90
2022/06/15 05:51:41;;;;;;;4.30;3.90;;;;;;;13.27;84.23;98090.88;6216314;28;20242;-89
2022/06/15 05:54:43;;;;;;;4.70;3.80;;;;;;;13.37;83.90;98090.09;6215837;28;20223;-90
2022/06/15 05:57:46;;;;;;;5.43;3.27;;;;;;;13.47;83.48;98098.97;6208165;28;20295;-89
2022/06/15 06:00:48;;;;;;;4.47;3.27;;;;;;;13.58;83.69;98104.16;6211772;28;20267;-85
2022/06/15 06:03:51;;;;;;;4.23;3.83;;;;;;;13.70;83.13;98094.31;6215699;28;20641;-85
2022/06/15 06:06:53;;;;;;;5.73;3.63;;;;;;;13.77;83.35;98104.28;6212596;28;20711;-85
2022/06/15 06:09:55;;;;;;;7.03;3.80;;;;;;;13.86;83.41;98103.47;6206976;28;20815;-85
2022/06/15 06:12:57;;;;;;;4.03;3.73;;;;;;;13.99;83.86;98105.88;6229939;28;20309;-85
2022/06/15 06:15:59;;;;;;;4.00;3.40;;;;;;;14.17;83.05;98112.25;6195138;28;20233;-85
2022/06/15 06:19:01;;;;;;;4.20;3.77;;;;;;;14.35;82.59;98110.63;6223830;28;20235;-83
2022/06/15 06:22:04;;;;;;;5.13;3.87;;;;;;;14.56;82.34;98104.41;6199323;28;20318;-84
2022/06/15 06:25:06;;;;;;;4.87;3.70;;;;;;;14.80;81.63;98104.00;6206958;28;20234;-85
2022/06/15 06:28:24;;;;;;;5.37;3.73;;;;;;;15.06;80.86;98110.47;6198780;28;20235;-85
2022/06/15 06:31:27;;;;;;;4.20;3.43;;;;;;;15.42;79.79;98107.03;6235839;28;20449;-86
2022/06/15 06:34:29;;;;;;;3.83;3.43;;;;;;;15.75;78.71;98113.72;6219335;28;20496;-87
2022/06/15 06:37:35;;;;;;;3.90;3.53;;;;;;;16.08;77.66;98109.66;6203903;28;20719;-84
2022/06/15 06:40:37;;;;;;;4.43;3.03;;;;;;;16.39;76.46;98109.34;6213627;28;20239;-84
2022/06/15 06:43:39;;;;;;;5.50;3.60;;;;;;;16.71;75.16;98115.09;6231978;28;20314;-84
2022/06/15 06:46:44;;;;;;;4.93;3.50;;;;;;;17.07;74.15;98120.44;6214734;28;20236;-84
2022/06/15 06:49:46;;;;;;;4.77;3.60;;;;;;;17.41;72.49;98116.03;6231580;28;20687;-83
2022/06/15 06:52:49;;;;;;;6.47;2.87;;;;;;;17.82;70.48;98111.00;6210728;28;20338;-85
2022/06/15 06:55:51;;;;;;;4.67;3.23;;;;;;;18.19;69.67;98116.03;6197713;28;20235;-84
2022/06/15 06:58:53;;;;;;;6.43;3.97;;;;;;;18.52;68.63;98114.34;6209435;28;20236;-85
2022/06/15 07:01:55;;;;;;;4.33;3.60;;;;;;;18.78;67.20;98113.25;6207849;28;20347;-85
2022/06/15 07:05:29;;;;;;;3.30;3.00;;;;;;;19.09;65.70;98102.78;6165834;28;20226;-85
2022/06/15 07:08:32;;;;;;;4.70;2.77;;;;;;;19.30;64.58;98112.97;6139907;28;20638;-85
2022/06/15 07:11:34;;;;;;;3.17;2.83;;;;;;;19.50;63.85;98114.34;6164441;28;20316;-85
2022/06/15 07:14:36;;;;;;;7.30;3.40;;;;;;;19.67;61.64;98098.25;6163405;28;20233;-87
2022/06/15 07:17:40;;;;;;;5.73;2.57;;;;;;;19.97;60.29;98100.19;6179903;28;20268;-84
2022/06/15 07:20:43;;;;;;;3.47;2.83;;;;;;;20.36;58.37;98094.06;6147903;28;20233;-87
2022/06/15 07:23:49;;;;;;;3.77;2.97;;;;;;;20.70;57.55;98093.72;6162162;28;20392;-84
2022/06/15 07:26:52;;;;;;;5.33;3.17;;;;;;;21.10;57.08;98089.91;6179356;28;20231;-85
2022/06/15 07:29:55;;;;;;;5.00;3.00;;;;;;;21.47;55.84;98086.44;6162681;28;20217;-85
2022/06/15 07:32:58;;;;;;;3.50;2.57;;;;;;;21.82;54.28;98077.72;6176991;28;20703;-86
2022/06/15 07:36:00;;;;;;;4.13;2.53;;;;;;;22.08;54.44;98082.66;6164162;28;20229;-86
2022/06/15 07:39:04;;;;;;;6.17;2.40;;;;;;;22.24;52.86;98079.78;6147496;28;20305;-83
2022/06/15 07:42:08;;;;;;;4.10;2.63;;;;;;;22.41;50.40;98080.41;6179962;28;20580;-83
2022/06/15 07:45:12;;;;;;;4.70;2.40;;;;;;;22.46;49.11;98077.97;6187192;28;20209;-85
2022/06/15 07:51:40;;;;;;;7.13;2.70;;;;;;;23.05;46.95;98083.22;6189252;28;20251;-84
2022/06/15 07:54:42;;;;;;;4.67;2.30;;;;;;;23.02;45.95;98070.97;6188797;28;20252;-84
2022/06/15 07:57:45;;;;;;;6.50;2.50;;;;;;;23.47;47.64;98075.09;6178964;28;20805;-83
2022/06/15 08:00:49;;;;;;;2.37;2.17;;;;;;;23.69;46.04;98069.69;6229923;28;20273;-83
2022/06/15 08:03:51;;;;;;;4.23;2.40;;;;;;;23.88;45.15;98072.50;6206180;28;20235;-83
2022/06/15 08:06:53;;;;;;;6.80;2.60;;;;;;;24.14;45.06;98068.31;6188641;28;20309;-84
2022/06/15 08:09:55;;;;;;;4.30;2.43;;;;;;;24.07;43.25;98070.97;6180793;28;20241;-83
2022/06/15 08:12:57;;;;;;;2.87;2.40;;;;;;;24.39;43.45;98056.00;6173565;28;20783;-82
2022/06/15 08:16:00;;;;;;;5.97;2.50;;;;;;;24.35;42.87;98052.06;6210109;28;20414;-82
2022/06/15 08:19:03;;;;;;;3.80;2.40;;;;;;;24.70;43.31;98057.34;6220785;28;20238;-83
2022/06/15 08:22:07;;;;;;;5.57;2.37;;;;;;;25.32;42.34;98055.22;6187937;28;20232;-84
2022/06/15 08:25:13;;;;;;;2.40;2.20;;;;;;;25.72;41.40;98050.66;6166739;28;20233;-83
2022/06/15 08:28:20;;;;;;;3.83;2.67;;;;;;;25.73;40.64;98046.91;6187645;28;20237;-83
2022/06/15 08:31:25;;;;;;;4.07;2.00;;;;;;;26.09;41.58;98043.69;6244046;28;20779;-83
2022/06/15 08:34:28;;;;;;;5.28;2.67;;;;;;;26.25;41.90;98052.41;6236169;28;20435;-85
2022/06/15 08:37:31;;;;;;;6.30;2.80;;;;;;;25.53;42.29;98046.06;6227831;28;20236;-83
2022/06/15 08:40:44;;;;;;;5.75;2.67;;;;;;;25.76;41.50;98048.34;6236084;28;20234;-83
2022/06/15 08:43:46;;;;;;;4.53;2.25;;;;;;;26.21;42.52;98056.56;6235714;28;20250;-83
2022/06/15 08:46:57;;;;;;;3.95;2.92;;;;;;;25.73;40.89;98046.06;6236918;28;20229;-85
2022/06/15 08:50:28;;;;;;;5.45;3.10;;;;;;;25.58;42.57;98042.72;6235689;28;20234;-84
2022/06/15 08:53:40;;;;;;;7.47;3.00;;;;;;;26.01;42.48;98053.91;6236117;28;20227;-86
2022/06/15 08:56:45;;;;;;;4.28;2.85;;;;;;;26.35;41.92;98055.50;6235995;28;20385;-85
2022/06/15 08:59:53;;;;;;;18.10;3.85;;;;;;;26.47;40.75;98053.78;6235870;28;20234;-86
2022/06/15 09:03:28;;;;;;;11.02;3.30;;;;;;;25.96;41.27;98051.81;6251757;28;20289;-86
2022/06/15 09:06:51;;;;;;;4.97;3.00;;;;;;;26.40;40.50;98055.69;6235400;28;20292;-86
2022/06/15 09:10:23;;;;;;;3.70;2.88;;;;;;;25.99;42.87;98056.00;6219509;28;20226;-86
2022/06/15 09:13:48;;;;;;;3.75;2.60;;;;;;;26.51;41.59;98054.19;6241292;28;20304;-87
2022/06/15 09:17:14;;;;;;;8.82;2.70;;;;;;;26.82;39.95;98046.94;6241298;28;20238;-86
2022/06/15 09:20:25;;;;;;;5.68;2.78;;;;;;;27.31;38.71;98053.50;6236281;28;20722;-85
2022/06/15 09:23:41;;;;;;;5.82;2.40;;;;;;;27.06;40.81;98055.34;6236647;28;20222;-84
2022/06/15 09:26:54;;;;;;;4.10;2.72;;;;;;;26.75;40.78;98056.16;6236638;28;20233;-84
2022/06/15 09:30:18;;;;;;;3.88;2.78;;;;;;;26.76;41.00;98052.38;6235274;28;20289;-84
2022/06/15 09:33:20;;;;;;;4.03;2.33;;;;;;;26.90;40.63;98053.13;6235233;28;20310;-85
2022/06/15 09:36:31;;;;;;;4.18;2.25;;;;;;;27.42;40.48;98057.38;6226911;28;20771;-85
2022/06/15 09:39:33;;;;;;;4.90;2.63;;;;;;;27.27;38.76;98060.41;6234582;28;20262;-84
2022/06/15 09:42:41;;;;;;;7.88;3.00;;;;;;;27.07;38.27;98057.84;6219112;28;20242;-83
2022/06/15 09:46:07;;;;;;;4.00;2.35;;;;;;;27.39;38.74;98060.53;6236674;28;20232;-83
2022/06/15 09:49:27;;;;;;;4.00;2.75;;;;;;;27.87;37.34;98053.44;6252885;28;20319;-83
2022/06/15 09:52:39;;;;;;;3.13;2.22;;;;;;;28.29;38.05;98048.22;6234835;28;20238;-83
2022/06/15 09:55:48;;;;;;;6.00;2.67;;;;;;;28.23;37.45;98047.25;6218584;28;20318;-83
2022/06/15 09:59:16;;;;;;;5.30;2.40;;;;;;;28.57;37.87;98051.19;6226296;28;20710;-83
2022/06/15 10:02:29;;;;;;;2.58;2.08;;;;;;;28.96;35.29;98038.97;6232887;28;20311;-83
2022/06/15 10:05:38;;;;;;;4.20;2.30;;;;;;;28.80;35.70;98053.22;6222362;28;20254;-83
2022/06/15 10:08:40;;;;;;;4.53;2.92;;;;;;;28.18;37.80;98054.41;6239526;28;20704;-83
2022/06/15 10:11:52;;;;;;;4.40;2.55;;;;;;;28.04;37.21;98042.84;6239536;28;20222;-83
2022/06/15 10:15:07;;;;;;;3.08;2.30;;;;;;;27.67;37.91;98041.13;6238695;28;20227;-83
2022/06/15 10:18:17;;;;;;;3.20;2.55;;;;;;;27.66;38.75;98042.16;6223295;28;20228;-83
2022/06/15 10:21:24;;;;;;;2.58;2.28;;;;;;;27.87;40.29;98037.16;6239142;28;20204;-83
2022/06/15 10:24:34;;;;;;;3.15;2.58;;;;;;;28.53;38.25;98028.28;6239051;28;20230;-84
2022/06/15 10:27:40;;;;;;;3.67;2.22;;;;;;;28.56;37.96;98027.81;6238031;28;20818;-83
2022/06/15 10:30:57;;;;;;;4.18;2.40;;;;;;;28.26;38.09;98025.06;6230632;28;20370;-84
2022/06/15 10:34:25;;;;;;;3.88;2.70;;;;;;;27.76;39.07;98032.47;6223056;28;20775;-83
2022/06/15 10:37:33;;;;;;;4.10;2.13;;;;;;;28.05;40.84;98028.19;6246853;28;20238;-84
2022/06/15 10:40:53;;;;;;;4.53;2.25;;;;;;;28.14;38.15;98013.28;6239134;28;20228;-83
2022/06/15 10:43:55;;;;;;;2.38;2.00;;;;;;;29.36;39.47;98019.31;6238557;28;20365;-83
2022/06/15 10:47:18;;;;;;;2.58;2.38;;;;;;;30.19;36.33;98026.47;6237890;28;20959;-83
2022/06/15 10:50:28;;;;;;;5.15;2.05;;;;;;;30.86;37.29;98021.28;6221663;28;20227;-83
2022/06/15 10:54:12;;;;;;;4.70;2.60;;;;;;;30.07;33.61;98013.69;6255280;28;20227;-83
2022/06/15 11:04:29;;;;;;;5.85;2.40;;;;;;;30.67;33.89;98001.56;6254252;28;20239;-83
2022/06/15 11:07:42;;;;;;;4.93;2.53;;;;;;;30.94;33.42;98001.81;6236711;28;20235;-83
2022/06/15 11:10:48;;;;;;;3.50;2.22;;;;;;;30.91;34.21;97994.13;6254629;28;20227;-83
2022/06/15 11:13:57;;;;;;;3.10;2.40;;;;;;;31.30;34.13;97987.72;6237837;28;20216;-84
2022/06/15 11:21:02;;;;;;;4.40;2.30;;;;;;;30.68;31.22;97975.97;6254169;28;20311;-84
2022/06/15 11:24:10;;;;;;;3.83;2.30;;;;;;;31.23;32.22;97980.78;6226355;28;20229;-85
2022/06/15 11:27:24;;;;;;;5.50;2.17;;;;;;;31.14;31.50;97992.13;6237723;28;20188;-83
2022/06/15 11:30:37;;;;;;;6.35;2.45;;;;;;;30.68;32.01;97984.16;6237491;28;20815;-83
2022/06/15 11:33:59;;;;;;;2.88;2.15;;;;;;;30.96;30.07;97981.38;6254920;28;20277;-84
2022/06/15 11:37:13;;;;;;;3.63;2.60;;;;;;;29.78;32.72;97979.28;6236404;28;20235;-83
2022/06/15 11:40:18;;;;;;;6.30;2.35;;;;;;;29.08;33.75;97978.38;6237893;28;20238;-83
2022/06/15 11:43:30;;;;;;;5.05;2.00;;;;;;;29.11;35.09;97981.47;6237832;28;20222;-83
2022/06/15 11:46:56;;;;;;;4.53;2.17;;;;;;;29.39;33.60;97969.13;6255629;28;20346;-83
2022/06/15 11:50:18;;;;;;;3.55;1.98;;;;;;;30.34;32.86;97973.16;6236867;28;20271;-83
2022/06/15 11:53:23;;;;;;;3.67;2.38;;;;;;;30.98;31.67;97984.69;6259887;28;20265;-86
2022/06/15 11:56:33;;;;;;;4.18;2.35;;;;;;;30.65;31.10;97979.19;6234745;28;20377;-83
2022/06/15 11:59:52;;;;;;;3.47;2.10;;;;;;;31.17;31.77;97985.31;6253980;28;20247;-83
2022/06/15 12:02:54;;;;;;;3.53;2.15;;;;;;;31.70;30.83;97986.72;6228881;28;20319;-82
2022/06/15 12:06:27;;;;;;;3.03;2.35;;;;;;;31.02;30.27;97985.88;6236306;28;20226;-82
2022/06/15 12:09:59;;;;;;;3.50;2.42;;;;;;;31.60;29.50;97992.00;6224881;28;20596;-82
2022/06/15 12:13:30;;;;;;;2.40;2.15;;;;;;;31.63;30.15;97977.91;6220578;28;20235;-83
2022/06/15 12:16:48;;;;;;;4.30;2.30;;;;;;;30.99;31.28;97982.81;6223869;28;20235;-82
2022/06/15 12:20:23;;;;;;;2.53;2.22;;;;;;;30.68;31.73;97975.97;6254243;28;20231;-84
2022/06/15 12:23:40;;;;;;;3.47;2.30;;;;;;;30.34;29.66;97969.59;6220856;28;20321;-84
2022/06/15 12:27:04;;;;;;;4.13;1.80;;;;;;;30.20;31.14;97960.03;6235860;28;20223;-84
2022/06/15 12:30:27;;;;;;;2.78;2.28;;;;;;;31.12;30.66;97960.72;6236694;28;20609;-84
2022/06/15 12:33:53;;;;;;;2.10;1.90;;;;;;;32.35;30.43;97958.63;6252726;28;20229;-84
2022/06/15 12:37:26;;;;;;;3.60;2.30;;;;;;;32.62;27.67;97945.84;6236464;28;20226;-84
2022/06/15 12:40:38;;;;;;;3.20;2.20;;;;;;;33.17;28.67;97953.75;6253497;28;20330;-84
2022/06/15 12:43:44;;;;;;;3.30;2.35;;;;;;;32.73;28.52;97946.78;6254285;28;20222;-84
2022/06/15 12:46:48;;;;;;;3.22;2.20;;;;;;;33.35;27.91;97947.06;6236523;28;20259;-84
2022/06/15 12:50:25;;;;;;;4.00;2.20;;;;;;;33.89;27.42;97944.97;6252465;28;20235;-85
2022/06/15 12:53:52;;;;;;;3.22;2.00;;;;;;;34.08;26.60;97946.16;6236280;28;20310;-83
2022/06/15 12:57:03;;;;;;;4.22;2.17;;;;;;;34.59;26.99;97935.38;6240811;28;20260;-83
2022/06/15 13:00:38;;;;;;;3.45;1.98;;;;;;;34.91;26.03;97942.56;6253593;28;20239;-85
2022/06/15 13:03:58;;;;;;;3.63;2.25;;;;;;;34.35;26.47;97936.94;6193223;28;20220;-85
2022/06/15 13:07:34;;;;;;;3.47;1.80;;;;;;;34.65;25.34;97939.75;6255734;28;20238;-85
2022/06/15 13:10:36;;;;;;;3.10;1.58;;;;;;;33.62;27.83;97930.56;6177328;28;20368;-85
2022/06/15 13:13:50;;;;;;;3.13;2.60;;;;;;;31.95;31.76;97943.38;6145512;28;20319;-84
2022/06/15 13:17:04;;;;;;;2.95;2.00;;;;;;;32.34;32.04;97935.16;6160866;28;20225;-84
2022/06/15 13:20:10;;;;;;;2.00;1.58;;;;;;;33.18;29.59;97933.50;6178515;28;20229;-84
2022/06/15 13:23:27;;;;;;;4.05;2.17;;;;;;;34.07;29.23;97932.72;6178775;28;20360;-84
2022/06/15 13:26:37;;;;;;;2.92;2.03;;;;;;;33.58;26.79;97934.91;6177179;28;20240;-84
2022/06/15 13:29:50;;;;;;;4.45;2.03;;;;;;;33.34;28.00;97931.75;6177574;28;20277;-84
2022/06/15 13:33:00;;;;;;;2.53;1.92;;;;;;;34.01;27.37;97929.13;6178848;28;20240;-84
2022/06/15 13:36:11;;;;;;;4.65;2.67;;;;;;;34.38;26.67;97934.50;6179797;28;20233;-84
2022/06/15 13:39:49;;;;;;;5.07;2.22;;;;;;;33.63;27.08;97932.22;6180687;28;20233;-84
2022/06/15 13:43:01;;;;;;;3.50;2.20;;;;;;;34.03;26.36;97926.97;6180152;28;20794;-84
2022/06/15 13:46:20;;;;;;;2.65;1.98;;;;;;;33.13;27.87;97924.44;6220812;28;20257;-85
2022/06/15 13:49:36;;;;;;;3.00;1.77;;;;;;;33.67;28.73;97917.72;6262079;28;20242;-85
2022/06/15 13:52:41;;;;;;;3.90;2.10;;;;;;;34.76;26.65;97907.72;6222079;28;20683;-82
2022/06/15 13:55:57;;;;;;;1.83;1.73;;;;;;;35.75;25.21;97920.84;6237305;28;20389;-85
2022/06/15 13:59:22;;;;;;;4.70;2.08;;;;;;;36.61;23.58;97911.38;6256150;28;20232;-84
2022/06/15 14:02:50;;;;;;;4.60;2.05;;;;;;;36.74;23.75;97908.00;6256006;28;20232;-84
2022/06/15 14:06:08;;;;;;;3.30;2.33;;;;;;;37.74;21.64;97901.06;6256575;28;20722;-84
2022/06/15 14:09:37;;;;;;;3.67;2.10;;;;;;;39.73;20.80;97903.31;6238661;28;20707;-84
2022/06/15 14:12:42;;;;;;;5.10;2.00;;;;;;;41.08;19.01;97905.31;6238826;28;20231;-84
2022/06/15 14:16:21;;;;;;;3.13;2.08;;;;;;;41.85;17.93;97891.09;6238886;28;20231;-84
2022/06/15 14:19:36;;;;;;;4.32;2.22;;;;;;;41.86;17.46;97895.50;6255755;28;20235;-84
2022/06/15 14:23:06;;;;;;;3.20;2.00;;;;;;;40.04;21.57;97904.34;6254193;28;20767;-84
2022/06/15 14:26:29;;;;;;;2.10;1.60;;;;;;;41.66;20.50;97894.13;6229703;28;20282;-84
2022/06/15 14:29:38;;;;;;;2.72;1.85;;;;;;;43.09;19.35;97897.00;6212163;28;1204947;-85
2022/06/15 14:32:41;;;;;;;3.35;1.95;;;;;;;43.85;16.56;97902.69;6262684;28;20234;-82
2022/06/15 14:35:43;;;;;;;4.28;2.10;;;;;;;43.04;16.12;97892.41;6244139;28;20261;-82
2022/06/15 14:39:13;;;;;;;3.10;1.95;;;;;;;43.31;16.26;97888.47;6245289;28;20661;-84
2022/06/15 14:42:28;;;;;;;2.88;1.98;;;;;;;43.55;15.44;97892.63;6248402;28;20266;-84
2022/06/15 14:45:38;;;;;;;3.35;1.98;;;;;;;44.36;16.43;97898.00;6239791;28;20224;-83
2022/06/15 14:48:40;;;;;;;6.53;1.80;;;;;;;44.50;14.87;97896.63;6238627;28;20764;-82
2022/06/15 14:51:42;;;;;;;5.55;2.13;;;;;;;44.95;14.68;97884.75;6238748;28;20229;-85
2022/06/15 14:54:46;;;;;;;2.88;1.80;;;;;;;45.16;15.96;97879.19;6255840;28;20223;-87
2022/06/15 14:57:49;;;;;;;1.67;1.58;;;;;;;45.33;15.70;97880.94;6239078;28;20706;-84
2022/06/15 15:01:06;;;;;;;1.88;1.60;;;;;;;45.61;14.84;97879.19;6238188;28;20750;-84
2022/06/15 15:04:17;;;;;;;2.47;1.92;;;;;;;45.36;15.00;97872.72;6213161;28;20243;-84
2022/06/15 15:10:43;;;;;;;2.95;1.98;;;;;;;44.86;14.59;97865.34;6255941;28;20255;-84
2022/06/15 15:14:01;;;;;;;3.20;1.75;;;;;;;44.20;15.20;97869.13;6238451;28;20231;-84